Grande Portogallo — IBZW — position and weather

sailwx.info

Track history (hours):
 
Tides and Currents Weather Stations Pressure Air Temp Water Temp Dewpoint Dewpoint Depression Visibility Wind Speed Wind Dir Waves Ship Positions

Grande Portogallo

Last reported at 2016-Feb-13 01:30 UTC. Time now 2016-Feb-13 02:34 UTC.
Position N 51°16' E 004°13'.

Length 176 m; draft 8.3 m.

Type: Cargo ship. MMSI: 247065500.

Date/timePositionNaut miles runAvg speedWind from/ knotsBaromVisibWave heightAir tempDewpointWater temp
2016-Feb-13 01:30N 51°16' E 004°13'0 0.0
2016-Feb-13 00:33N 51°16' E 004°13'0 0.0
2016-Feb-12 23:33N 51°16' E 004°13'3 2.5
2016-Feb-12 22:33N 51°16' E 004°17'2 2.0
2016-Feb-12 21:33N 51°18' E 004°18'8 8.0
2016-Feb-12 20:33N 51°22' E 004°07'8 7.6
2016-Feb-12 19:33N 51°22' E 003°55'1110.7
2016-Feb-12 18:33N 51°26' E 003°39'1010.1
2016-Feb-12 17:34N 51°24' E 003°23'1514.6
2016-Feb-12 16:33N 51°25' E 002°60'10 9.5
2016-Feb-12 15:33N 51°33' E 003°08'1211.9
2016-Feb-12 14:32N 51°44' E 003°14'5 4.5
2016-Feb-12 13:32N 51°49' E 003°16'1111.1
2016-Feb-12 12:33N 51°59' E 003°21'1918.1
2016-Feb-12 11:32N 52°16' E 003°32'1817.8
2016-Feb-12 10:32N 52°32' E 003°46'1717.4
2016-Feb-12 09:33N 52°48' E 003°56'1615.7
2016-Feb-12 08:33N 53°01' E 004°10'1615.7
2016-Feb-12 07:33N 53°13' E 004°27'1515.1
2016-Feb-12 06:32N 53°27' E 004°37'1515.7
2016-Feb-12 05:34N 53°34' E 005°00'1817.5
2016-Feb-12 04:33N 53°40' E 005°28'1818.0
2016-Feb-12 03:34N 53°46' E 005°57'1717.5
2016-Feb-12 02:34N 53°51' E 006°25'1716.8
2016-Feb-12 01:33N 53°55' E 006°53'1616.1
2016-Feb-12 00:33N 53°58' E 007°20'1615.5
2016-Feb-11 23:33N 54°01' E 007°46'1515.1
2016-Feb-11 22:33N 54°01' E 008°11'1413.5
2016-Feb-11 21:33N 53°58' E 008°34'1515.4
2016-Feb-11 20:33N 53°51' E 008°57'1413.9
2016-Feb-11 19:34N 53°50' E 009°20'1817.8
2016-Feb-11 18:33N 53°35' E 009°37'1111.3
2016-Feb-11 17:33N 53°33' E 009°55'3 2.7
2016-Feb-11 16:32N 53°32' E 009°60'0 0.0
2016-Feb-11 15:29N 53°32' E 009°60'0 0.0
2016-Feb-11 14:32N 53°32' E 009°60'0 0.0
2016-Feb-11 13:32N 53°32' E 009°60'0 0.0
2016-Feb-11 12:32N 53°32' E 009°60'0 0.0
2016-Feb-11 11:32N 53°32' E 009°60'0 0.0
2016-Feb-11 10:32N 53°32' E 009°60'0 0.0
2016-Feb-11 09:32N 53°32' E 009°60'0 0.0
2016-Feb-11 08:32N 53°32' E 009°60'0 0.0
2016-Feb-11 07:32N 53°32' E 009°60'0 0.0
2016-Feb-11 06:32N 53°32' E 009°60'0 0.2
2016-Feb-11 05:33N 53°32' E 009°59'7 6.8
2016-Feb-11 04:33N 53°33' E 009°48'1212.2
2016-Feb-11 03:33N 53°40' E 009°31'1514.7
2016-Feb-11 02:33N 53°52' E 009°17'1414.2
2016-Feb-11 01:33N 53°50' E 008°53'1616.3
2016-Feb-11 00:33N 53°58' E 008°29'1515.5
2016-Feb-10 23:33N 54°00' E 008°03'1010.0
2016-Feb-10 22:33N 54°04' E 007°47'0 0.1
2016-Feb-10 21:31N 54°04' E 007°47'0 0.0
2016-Feb-10 20:31N 54°04' E 007°47'0 0.1
2016-Feb-10 19:31N 54°04' E 007°47'0 0.1
2016-Feb-10 18:31N 54°04' E 007°47'0 0.0
2016-Feb-10 17:31N 54°04' E 007°47'0 0.0
2016-Feb-10 16:31N 54°04' E 007°47'0 0.0
2016-Feb-10 15:31N 54°04' E 007°47'2 1.8
2016-Feb-10 14:33N 54°02' E 007°47'1211.7
2016-Feb-10 13:33N 53°56' E 007°30'1515.5
2016-Feb-10 12:33N 53°52' E 007°05'1615.9
2016-Feb-10 11:34N 53°48' E 006°39'1616.3
2016-Feb-10 10:33N 53°44' E 006°12'1616.6
2016-Feb-10 09:33N 53°38' E 005°45'1817.6
2016-Feb-10 08:33N 53°33' E 005°17'2516.7
2016-Feb-10 07:03N 53°20' E 004°40'917.8
2016-Feb-10 06:33N 53°13' E 004°33'1817.6
2016-Feb-10 05:33N 52°58' E 004°18'1818.1
2016-Feb-10 04:33N 52°43' E 004°01'1818.5
2016-Feb-10 03:33N 52°29' E 003°42'1818.4
2016-Feb-10 02:33N 52°11' E 003°30'2617.6
2016-Feb-10 01:06N 51°48' E 003°16'610.7
2016-Feb-10 00:33N 51°42' E 003°18'1212.0
2016-Feb-09 23:33N 51°31' E 003°26'10 9.7
2016-Feb-09 22:33N 51°27' E 003°41'0 0.3
2016-Feb-09 21:32N 51°28' E 003°41'0 0.0
2016-Feb-09 20:32N 51°28' E 003°41'0 0.0
2016-Feb-09 19:32N 51°28' E 003°41'0 0.0
2016-Feb-09 18:29N 51°28' E 003°41'0 0.0
2016-Feb-09 17:32N 51°28' E 003°41'0 0.0
2016-Feb-09 16:32N 51°28' E 003°41'0 0.0
2016-Feb-09 15:29N 51°28' E 003°41'0 0.0
2016-Feb-09 14:32N 51°28' E 003°41'0 0.0
2016-Feb-09 13:29N 51°28' E 003°41'0 0.0
2016-Feb-09 12:32N 51°28' E 003°41'0 0.0
2016-Feb-09 11:32N 51°28' E 003°41'0 0.0
2016-Feb-09 10:32N 51°28' E 003°41'0 0.3
2016-Feb-09 09:34N 51°27' E 003°41'1111.1
2016-Feb-09 08:34N 51°24' E 003°24'1514.5
2016-Feb-09 07:33N 51°24' E 003°00'1110.9
2016-Feb-09 06:33N 51°23' E 002°43'9 9.3
2016-Feb-09 05:33N 51°29' E 002°55'2 1.5
2016-Feb-09 04:32N 51°30' E 002°57'1 0.8
2016-Feb-09 03:32N 51°30' E 002°58'5 4.9
2016-Feb-09 02:33N 51°29' E 002°51'1 1.2
2016-Feb-09 01:30N 51°28' E 002°50'2 1.8
2016-Feb-09 00:33N 51°29' E 002°53'2 1.7
2016-Feb-08 23:33N 51°29' E 002°56'2 1.6
2016-Feb-08 22:34N 51°30' E 002°58'1 1.4
2016-Feb-08 21:33N 51°30' E 002°60'3 2.8
2016-Feb-08 20:33N 51°31' E 003°04'8 8.3
2016-Feb-08 19:33N 51°29' E 002°52'0 0.4
2016-Feb-08 18:33N 51°28' E 002°52'1 0.8
2016-Feb-08 17:32N 51°29' E 002°54'2 1.5
2016-Feb-08 16:32N 51°28' E 002°51'2 2.2
2016-Feb-08 15:27N 51°30' E 002°54'3 3.5
2016-Feb-08 14:33N 51°29' E 002°50'1 0.8
2016-Feb-08 13:30N 51°28' E 002°50'2 1.8
2016-Feb-08 12:33N 51°29' E 002°53'3 2.9
2016-Feb-08 11:33N 51°31' E 002°50'2 1.8
2016-Feb-08 10:33N 51°30' E 002°48'2 1.8
2016-Feb-08 09:32N 51°28' E 002°47'4 3.5
2016-Feb-08 08:24N 51°32' E 002°46'4 3.7
2016-Feb-08 07:14N 51°28' E 002°47'3 4.3
2016-Feb-08 06:33N 51°25' E 002°43'2 1.9
2016-Feb-08 05:33N 51°24' E 002°43'4 4.4
2016-Feb-08 04:34N 51°21' E 002°49'5 5.4
2016-Feb-08 03:33N 51°22' E 002°41'8 7.5
2016-Feb-08 02:29N 51°22' E 002°28'1011.0
2016-Feb-08 01:33N 51°16' E 002°14'1918.9
2016-Feb-08 00:33N 51°07' E 001°48'2019.4
2016-Feb-07 23:32N 50°54' E 001°25'7615.1
2016-Feb-07 18:33N 50°30' W 000°28'1716.9
2016-Feb-07 17:33N 50°38' W 000°51'1414.3
2016-Feb-07 16:34N 50°46' W 001°10'1111.1
2016-Feb-07 15:33N 50°53' W 001°24'1 1.4
2016-Feb-07 14:31N 50°54' W 001°25'0 0.0
2016-Feb-07 13:31N 50°54' W 001°25'0 0.0
2016-Feb-07 12:31N 50°54' W 001°25'0 0.0
2016-Feb-07 11:31N 50°54' W 001°25'0 0.0
2016-Feb-07 10:31N 50°54' W 001°25'0 0.0
2016-Feb-07 09:31N 50°54' W 001°25'0 0.0
2016-Feb-07 08:31N 50°54' W 001°25'0 0.0
2016-Feb-07 07:31N 50°54' W 001°25'0 0.0
2016-Feb-07 06:31N 50°54' W 001°25'0 0.0
2016-Feb-07 05:31N 50°54' W 001°25'0 0.0
2016-Feb-07 04:33N 50°54' W 001°25'7 6.7
2016-Feb-07 03:33N 50°49' W 001°18'1212.1
2016-Feb-07 02:34N 50°43' W 001°01'9 8.9
2016-Feb-07 01:33N 50°35' W 000°57'6 6.1
2016-Feb-07 00:34N 50°29' W 000°56'5 4.9
2016-Feb-06 23:33N 50°30' W 001°03'6 6.2
2016-Feb-06 22:32N 50°28' W 000°53'4 3.8
2016-Feb-06 21:33N 50°30' W 000°59'1 1.4
2016-Feb-06 20:33N 50°30' W 001°01'5 5.5
2016-Feb-06 19:33N 50°32' W 000°53'2 2.3
2016-Feb-06 18:33N 50°34' W 000°50'3 2.6
2016-Feb-06 17:33N 50°33' W 000°54'63815.9
2016-Feb-05 01:33N 41°54' W 009°50'1716.5
2016-Feb-05 00:32N 41°37' W 009°50'1717.4
2016-Feb-04 23:32N 41°20' W 009°50'1716.8
2016-Feb-04 22:32N 41°03' W 009°50'1616.4
2016-Feb-04 21:32N 40°46' W 009°49'1616.1
2016-Feb-04 20:32N 40°30' W 009°49'1616.4
2016-Feb-04 19:32N 40°14' W 009°49'2116.3
2016-Feb-04 18:14N 39°53' W 009°50'1216.5
2016-Feb-04 17:32N 39°41' W 009°50'1414.8
2016-Feb-04 16:33N 39°27' W 009°50'1616.2
2016-Feb-04 15:33N 39°10' W 009°51'1616.2
2016-Feb-04 14:33N 38°54' W 009°51'1616.2
2016-Feb-04 13:33N 38°38' W 009°49'1716.5
2016-Feb-04 12:33N 38°22' W 009°44'1616.5
2016-Feb-04 11:33N 38°06' W 009°40'1716.5
2016-Feb-04 10:33N 37°50' W 009°35'1616.2
2016-Feb-04 09:33N 37°34' W 009°30'1717.2
2016-Feb-04 08:32N 37°17' W 009°25'1615.4
2016-Feb-04 07:29N 37°01' W 009°20'1414.7
2016-Feb-04 06:32N 36°49' W 009°13'1816.9
2016-Feb-04 05:29N 36°41' W 008°53'1515.9
2016-Feb-04 04:32N 36°36' W 008°35'1717.1
2016-Feb-04 03:32N 36°31' W 008°15'13516.9
2016-Feb-03 19:33N 35°59' W 005°32'1615.9
2016-Feb-03 18:33N 36°02' W 005°13'21816.8
2016-Feb-03 05:33N 37°18' W 000°58'1716.8
2016-Feb-03 04:33N 37°29' W 000°42'1616.2
2016-Feb-03 03:33N 37°41' W 000°28'1716.6
2016-Feb-03 02:32N 37°55' W 000°17'  
Track history (hours):
 
Tides and Currents Weather Stations Pressure Air Temp Water Temp Dewpoint Dewpoint Depression Visibility Wind Speed Wind Dir Waves Ship Positions

Grande Portogallo

Last reported at 2016-Feb-13 01:30 UTC. Time now 2016-Feb-13 02:34 UTC.
Position N 51°16' E 004°13'.

Length 176 m; draft 8.3 m.

Type: Cargo ship. MMSI: 247065500.

Date/timePositionNaut miles runAvg speedWind from/ knotsBaromVisibWave heightAir tempDewpointWater temp
2016-Feb-13 01:30N 51°16' E 004°13'0 0.0
2016-Feb-13 00:33N 51°16' E 004°13'0 0.0
2016-Feb-12 23:33N 51°16' E 004°13'3 2.5
2016-Feb-12 22:33N 51°16' E 004°17'2 2.0
2016-Feb-12 21:33N 51°18' E 004°18'8 8.0
2016-Feb-12 20:33N 51°22' E 004°07'8 7.6
2016-Feb-12 19:33N 51°22' E 003°55'1110.7
2016-Feb-12 18:33N 51°26' E 003°39'1010.1
2016-Feb-12 17:34N 51°24' E 003°23'1514.6
2016-Feb-12 16:33N 51°25' E 002°60'10 9.5
2016-Feb-12 15:33N 51°33' E 003°08'1211.9
2016-Feb-12 14:32N 51°44' E 003°14'5 4.5
2016-Feb-12 13:32N 51°49' E 003°16'1111.1
2016-Feb-12 12:33N 51°59' E 003°21'1918.1
2016-Feb-12 11:32N 52°16' E 003°32'1817.8
2016-Feb-12 10:32N 52°32' E 003°46'1717.4
2016-Feb-12 09:33N 52°48' E 003°56'1615.7
2016-Feb-12 08:33N 53°01' E 004°10'1615.7
2016-Feb-12 07:33N 53°13' E 004°27'1515.1
2016-Feb-12 06:32N 53°27' E 004°37'1515.7
2016-Feb-12 05:34N 53°34' E 005°00'1817.5
2016-Feb-12 04:33N 53°40' E 005°28'1818.0
2016-Feb-12 03:34N 53°46' E 005°57'1717.5
2016-Feb-12 02:34N 53°51' E 006°25'1716.8
2016-Feb-12 01:33N 53°55' E 006°53'1616.1
2016-Feb-12 00:33N 53°58' E 007°20'1615.5
2016-Feb-11 23:33N 54°01' E 007°46'1515.1
2016-Feb-11 22:33N 54°01' E 008°11'1413.5
2016-Feb-11 21:33N 53°58' E 008°34'1515.4
2016-Feb-11 20:33N 53°51' E 008°57'1413.9
2016-Feb-11 19:34N 53°50' E 009°20'1817.8
2016-Feb-11 18:33N 53°35' E 009°37'1111.3
2016-Feb-11 17:33N 53°33' E 009°55'3 2.7
2016-Feb-11 16:32N 53°32' E 009°60'0 0.0
2016-Feb-11 15:29N 53°32' E 009°60'0 0.0
2016-Feb-11 14:32N 53°32' E 009°60'0 0.0
2016-Feb-11 13:32N 53°32' E 009°60'0 0.0
2016-Feb-11 12:32N 53°32' E 009°60'0 0.0
2016-Feb-11 11:32N 53°32' E 009°60'0 0.0
2016-Feb-11 10:32N 53°32' E 009°60'0 0.0
2016-Feb-11 09:32N 53°32' E 009°60'0 0.0
2016-Feb-11 08:32N 53°32' E 009°60'0 0.0
2016-Feb-11 07:32N 53°32' E 009°60'0 0.0
2016-Feb-11 06:32N 53°32' E 009°60'0 0.2
2016-Feb-11 05:33N 53°32' E 009°59'7 6.8
2016-Feb-11 04:33N 53°33' E 009°48'1212.2
2016-Feb-11 03:33N 53°40' E 009°31'1514.7
2016-Feb-11 02:33N 53°52' E 009°17'1414.2
2016-Feb-11 01:33N 53°50' E 008°53'1616.3
2016-Feb-11 00:33N 53°58' E 008°29'1515.5
2016-Feb-10 23:33N 54°00' E 008°03'1010.0
2016-Feb-10 22:33N 54°04' E 007°47'0 0.1
2016-Feb-10 21:31N 54°04' E 007°47'0 0.0
2016-Feb-10 20:31N 54°04' E 007°47'0 0.1
2016-Feb-10 19:31N 54°04' E 007°47'0 0.1
2016-Feb-10 18:31N 54°04' E 007°47'0 0.0
2016-Feb-10 17:31N 54°04' E 007°47'0 0.0
2016-Feb-10 16:31N 54°04' E 007°47'0 0.0
2016-Feb-10 15:31N 54°04' E 007°47'2 1.8
2016-Feb-10 14:33N 54°02' E 007°47'1211.7
2016-Feb-10 13:33N 53°56' E 007°30'1515.5
2016-Feb-10 12:33N 53°52' E 007°05'1615.9
2016-Feb-10 11:34N 53°48' E 006°39'1616.3
2016-Feb-10 10:33N 53°44' E 006°12'1616.6
2016-Feb-10 09:33N 53°38' E 005°45'1817.6
2016-Feb-10 08:33N 53°33' E 005°17'2516.7
2016-Feb-10 07:03N 53°20' E 004°40'917.8
2016-Feb-10 06:33N 53°13' E 004°33'1817.6
2016-Feb-10 05:33N 52°58' E 004°18'1818.1
2016-Feb-10 04:33N 52°43' E 004°01'1818.5
2016-Feb-10 03:33N 52°29' E 003°42'1818.4
2016-Feb-10 02:33N 52°11' E 003°30'2617.6
2016-Feb-10 01:06N 51°48' E 003°16'610.7
2016-Feb-10 00:33N 51°42' E 003°18'1212.0
2016-Feb-09 23:33N 51°31' E 003°26'10 9.7
2016-Feb-09 22:33N 51°27' E 003°41'0 0.3
2016-Feb-09 21:32N 51°28' E 003°41'0 0.0
2016-Feb-09 20:32N 51°28' E 003°41'0 0.0
2016-Feb-09 19:32N 51°28' E 003°41'0 0.0
2016-Feb-09 18:29N 51°28' E 003°41'0 0.0
2016-Feb-09 17:32N 51°28' E 003°41'0 0.0
2016-Feb-09 16:32N 51°28' E 003°41'0 0.0
2016-Feb-09 15:29N 51°28' E 003°41'0 0.0
2016-Feb-09 14:32N 51°28' E 003°41'0 0.0
2016-Feb-09 13:29N 51°28' E 003°41'0 0.0
2016-Feb-09 12:32N 51°28' E 003°41'0 0.0
2016-Feb-09 11:32N 51°28' E 003°41'0 0.0
2016-Feb-09 10:32N 51°28' E 003°41'0 0.3
2016-Feb-09 09:34N 51°27' E 003°41'1111.1
2016-Feb-09 08:34N 51°24' E 003°24'1514.5
2016-Feb-09 07:33N 51°24' E 003°00'1110.9
2016-Feb-09 06:33N 51°23' E 002°43'9 9.3
2016-Feb-09 05:33N 51°29' E 002°55'2 1.5
2016-Feb-09 04:32N 51°30' E 002°57'1 0.8
2016-Feb-09 03:32N 51°30' E 002°58'5 4.9
2016-Feb-09 02:33N 51°29' E 002°51'1 1.2
2016-Feb-09 01:30N 51°28' E 002°50'2 1.8
2016-Feb-09 00:33N 51°29' E 002°53'2 1.7
2016-Feb-08 23:33N 51°29' E 002°56'2 1.6
2016-Feb-08 22:34N 51°30' E 002°58'1 1.4
2016-Feb-08 21:33N 51°30' E 002°60'3 2.8
2016-Feb-08 20:33N 51°31' E 003°04'8 8.3
2016-Feb-08 19:33N 51°29' E 002°52'0 0.4
2016-Feb-08 18:33N 51°28' E 002°52'1 0.8
2016-Feb-08 17:32N 51°29' E 002°54'2 1.5
2016-Feb-08 16:32N 51°28' E 002°51'2 2.2
2016-Feb-08 15:27N 51°30' E 002°54'3 3.5
2016-Feb-08 14:33N 51°29' E 002°50'1 0.8
2016-Feb-08 13:30N 51°28' E 002°50'2 1.8
2016-Feb-08 12:33N 51°29' E 002°53'3 2.9
2016-Feb-08 11:33N 51°31' E 002°50'2 1.8
2016-Feb-08 10:33N 51°30' E 002°48'2 1.8
2016-Feb-08 09:32N 51°28' E 002°47'4 3.5
2016-Feb-08 08:24N 51°32' E 002°46'4 3.7
2016-Feb-08 07:14N 51°28' E 002°47'3 4.3
2016-Feb-08 06:33N 51°25' E 002°43'2 1.9
2016-Feb-08 05:33N 51°24' E 002°43'4 4.4
2016-Feb-08 04:34N 51°21' E 002°49'5 5.4
2016-Feb-08 03:33N 51°22' E 002°41'8 7.5
2016-Feb-08 02:29N 51°22' E 002°28'1011.0
2016-Feb-08 01:33N 51°16' E 002°14'1918.9
2016-Feb-08 00:33N 51°07' E 001°48'2019.4
2016-Feb-07 23:32N 50°54' E 001°25'7615.1
2016-Feb-07 18:33N 50°30' W 000°28'1716.9
2016-Feb-07 17:33N 50°38' W 000°51'1414.3
2016-Feb-07 16:34N 50°46' W 001°10'1111.1
2016-Feb-07 15:33N 50°53' W 001°24'1 1.4
2016-Feb-07 14:31N 50°54' W 001°25'0 0.0
2016-Feb-07 13:31N 50°54' W 001°25'0 0.0
2016-Feb-07 12:31N 50°54' W 001°25'0 0.0
2016-Feb-07 11:31N 50°54' W 001°25'0 0.0
2016-Feb-07 10:31N 50°54' W 001°25'0 0.0
2016-Feb-07 09:31N 50°54' W 001°25'0 0.0
2016-Feb-07 08:31N 50°54' W 001°25'0 0.0
2016-Feb-07 07:31N 50°54' W 001°25'0 0.0
2016-Feb-07 06:31N 50°54' W 001°25'0 0.0
2016-Feb-07 05:31N 50°54' W 001°25'0 0.0
2016-Feb-07 04:33N 50°54' W 001°25'7 6.7
2016-Feb-07 03:33N 50°49' W 001°18'1212.1
2016-Feb-07 02:34N 50°43' W 001°01'9 8.9
2016-Feb-07 01:33N 50°35' W 000°57'6 6.1
2016-Feb-07 00:34N 50°29' W 000°56'5 4.9
2016-Feb-06 23:33N 50°30' W 001°03'6 6.2
2016-Feb-06 22:32N 50°28' W 000°53'4 3.8
2016-Feb-06 21:33N 50°30' W 000°59'1 1.4
2016-Feb-06 20:33N 50°30' W 001°01'5 5.5
2016-Feb-06 19:33N 50°32' W 000°53'2 2.3
2016-Feb-06 18:33N 50°34' W 000°50'3 2.6
2016-Feb-06 17:33N 50°33' W 000°54'63815.9
2016-Feb-05 01:33N 41°54' W 009°50'1716.5
2016-Feb-05 00:32N 41°37' W 009°50'1717.4
2016-Feb-04 23:32N 41°20' W 009°50'1716.8
2016-Feb-04 22:32N 41°03' W 009°50'1616.4
2016-Feb-04 21:32N 40°46' W 009°49'1616.1
2016-Feb-04 20:32N 40°30' W 009°49'1616.4
2016-Feb-04 19:32N 40°14' W 009°49'2116.3
2016-Feb-04 18:14N 39°53' W 009°50'1216.5
2016-Feb-04 17:32N 39°41' W 009°50'1414.8
2016-Feb-04 16:33N 39°27' W 009°50'1616.2
2016-Feb-04 15:33N 39°10' W 009°51'1616.2
2016-Feb-04 14:33N 38°54' W 009°51'1616.2
2016-Feb-04 13:33N 38°38' W 009°49'1716.5
2016-Feb-04 12:33N 38°22' W 009°44'1616.5
2016-Feb-04 11:33N 38°06' W 009°40'1716.5
2016-Feb-04 10:33N 37°50' W 009°35'1616.2
2016-Feb-04 09:33N 37°34' W 009°30'1717.2
2016-Feb-04 08:32N 37°17' W 009°25'1615.4
2016-Feb-04 07:29N 37°01' W 009°20'1414.7
2016-Feb-04 06:32N 36°49' W 009°13'1816.9
2016-Feb-04 05:29N 36°41' W 008°53'1515.9
2016-Feb-04 04:32N 36°36' W 008°35'1717.1
2016-Feb-04 03:32N 36°31' W 008°15'13516.9
2016-Feb-03 19:33N 35°59' W 005°32'1615.9
2016-Feb-03 18:33N 36°02' W 005°13'21816.8
2016-Feb-03 05:33N 37°18' W 000°58'1716.8
2016-Feb-03 04:33N 37°29' W 000°42'1616.2
2016-Feb-03 03:33N 37°41' W 000°28'1716.6
2016-Feb-03 02:32N 37°55' W 000°17'  

Dump ship's entire track history